Johnson City, Texas
Current Conditions -  °F | °C
As of 11:35 PM on Wednesday 26 Nov 2014 (Local Time) from KDZB Reporting Station
Clear Clear  
Wind Chill: 41°   Ceiling: Unl
Heat Index: 41°   Visibility: 10mi
Dew Point: 34°   Wind: 0mph
Humidity: 77%   Direction: NA
Pressure: 30.37"   Gusts: NA
Location:  30.28°N, 98.41°W
Report Text: KDZB 270535Z AUTO 00000KT 10SM CLR 05/01 A3037 RMK AO2 T00500012
Loading
Personal Weather Stations






























Interactive Weather Map New forecast layout! Learn more

10-Day Weather Forecast

Advertisements
Track Severe Weather on mobile